Mugan — 9HA2962 — position and weather

sailwx.info

Track history (hours):
 
Tides and Currents Weather Stations Pressure Air Temp Water Temp Dewpoint Dewpoint Depression Visibility Wind Speed Wind Dir Waves Ship Positions

Mugan

Last reported at 2016-Jul-01 00:04 UTC. Time now 2016-Jul-01 00:56 UTC.
Position N 46°36' E 031°43'.

Length 140 m; draft 4.6 m.

Type: Tanker. MMSI: 256914000.

Date/timePositionNaut miles runAvg speedWind from/ knotsBaromVisibWave heightAir tempDewpointWater temp
2016-Jul-01 00:04N 46°36' E 031°43'5 9.9
2016-Jun-30 23:33N 46°35' E 031°50'10 9.6
2016-Jun-30 22:33N 46°32' E 032°03'  
2016-Jun-27 07:32N 46°32' E 032°03'1110.1
2016-Jun-27 06:25N 46°36' E 031°47'9 9.8
2016-Jun-27 05:30N 46°35' E 031°34'8 9.1
2016-Jun-27 04:34N 46°35' E 031°21'1010.4
2016-Jun-27 03:33N 46°35' E 031°06'7 7.4
2016-Jun-27 02:33N 46°31' E 030°57'8 7.8
2016-Jun-27 01:33N 46°24' E 030°57'4 4.1
2016-Jun-27 00:32N 46°22' E 031°03'0 0.0
2016-Jun-26 23:32N 46°22' E 031°03'0 0.0
2016-Jun-26 22:32N 46°22' E 031°03'0 0.0
2016-Jun-26 21:32N 46°22' E 031°03'0 0.0
2016-Jun-26 20:32N 46°22' E 031°03'0 0.0
2016-Jun-26 19:32N 46°22' E 031°03'0 0.0
2016-Jun-26 18:32N 46°22' E 031°03'0 0.0
2016-Jun-26 17:32N 46°22' E 031°03'0 0.1
2016-Jun-26 16:32N 46°22' E 031°03'0 0.0
2016-Jun-26 15:32N 46°23' E 031°03'0 0.1
2016-Jun-26 14:32N 46°23' E 031°03'0 0.0
2016-Jun-26 13:32N 46°23' E 031°03'0 0.1
2016-Jun-26 12:32N 46°23' E 031°03'0 0.0
2016-Jun-26 11:32N 46°22' E 031°03'0 0.0
2016-Jun-26 10:32N 46°22' E 031°03'0 0.0
2016-Jun-26 09:32N 46°22' E 031°03'0 0.0
2016-Jun-26 08:32N 46°22' E 031°03'0 0.0
2016-Jun-26 07:32N 46°22' E 031°03'0 0.0
2016-Jun-26 06:32N 46°22' E 031°03'0 0.0
2016-Jun-26 05:32N 46°22' E 031°03'0 0.0
2016-Jun-26 04:32N 46°22' E 031°03'0 0.0
2016-Jun-26 03:32N 46°22' E 031°03'0 0.0
2016-Jun-26 02:32N 46°22' E 031°03'0 0.0
2016-Jun-26 01:32N 46°22' E 031°03'0 0.0
2016-Jun-26 00:32N 46°22' E 031°03'0 0.0
2016-Jun-25 23:23N 46°22' E 031°03'0 0.0
2016-Jun-25 22:29N 46°22' E 031°03'0 0.0
2016-Jun-25 21:32N 46°22' E 031°03'0 0.0
2016-Jun-25 20:32N 46°22' E 031°03'0 0.0
2016-Jun-25 19:32N 46°22' E 031°03'0 0.0
2016-Jun-25 18:32N 46°22' E 031°03'0 0.0
2016-Jun-25 15:32N 46°22' E 031°03'0 0.0
2016-Jun-25 14:32N 46°22' E 031°03'0 0.1
2016-Jun-25 13:08N 46°22' E 031°03'0 0.0
2016-Jun-25 12:29N 46°22' E 031°03'0 0.0
2016-Jun-25 11:29N 46°22' E 031°03'0 0.0
2016-Jun-24 23:05N 46°22' E 031°03'0 0.0
2016-Jun-24 22:20N 46°22' E 031°03'0 0.0
2016-Jun-24 21:32N 46°22' E 031°03'0 0.0
2016-Jun-24 17:08N 46°22' E 031°03'0 0.0
2016-Jun-24 16:33N 46°22' E 031°03'0 0.0
2016-Jun-24 15:32N 46°22' E 031°03'3 3.4
2016-Jun-24 14:33N 46°23' E 030°59'8 8.4
2016-Jun-24 13:33N 46°31' E 030°55'7 0.2
2016-Jun-22 21:23N 46°37' E 031°01'0 0.0
2016-Jun-22 20:29N 46°37' E 031°01'0 0.3
2016-Jun-22 19:32N 46°37' E 031°01'5 5.3
2016-Jun-22 18:33N 46°32' E 030°59'0 0.1
2016-Jun-22 17:32N 46°31' E 030°59'0 0.0
2016-Jun-22 16:32N 46°32' E 030°59'0 0.0
2016-Jun-22 15:32N 46°32' E 030°59'0 0.1
2016-Jun-22 14:32N 46°32' E 030°59'0 0.0
2016-Jun-22 13:32N 46°32' E 030°59'0 0.0
2016-Jun-22 12:32N 46°32' E 030°59'0 0.0
2016-Jun-22 11:32N 46°32' E 030°59'0 0.0
2016-Jun-22 10:32N 46°32' E 030°59'3 3.4
2016-Jun-22 09:33N 46°28' E 030°57'10 9.9
2016-Jun-22 08:33N 46°19' E 030°57'10 9.7
2016-Jun-22 07:33N 46°11' E 031°05'9 9.2
2016-Jun-22 06:33N 46°02' E 031°05'1110.0
2016-Jun-22 05:28N 45°51' E 031°01'9 9.9
2016-Jun-22 04:34N 45°42' E 030°57'1010.0
2016-Jun-22 03:34N 45°33' E 030°53'1010.1
2016-Jun-22 02:33N 45°23' E 030°48'13 9.9
2016-Jun-22 01:15N 45°11' E 030°44'  
Track history (hours):
 
Tides and Currents Weather Stations Pressure Air Temp Water Temp Dewpoint Dewpoint Depression Visibility Wind Speed Wind Dir Waves Ship Positions

Mugan

Last reported at 2016-Jul-01 00:04 UTC. Time now 2016-Jul-01 00:56 UTC.
Position N 46°36' E 031°43'.

Length 140 m; draft 4.6 m.

Type: Tanker. MMSI: 256914000.

Date/timePositionNaut miles runAvg speedWind from/ knotsBaromVisibWave heightAir tempDewpointWater temp
2016-Jul-01 00:04N 46°36' E 031°43'5 9.9
2016-Jun-30 23:33N 46°35' E 031°50'10 9.6
2016-Jun-30 22:33N 46°32' E 032°03'  
2016-Jun-27 07:32N 46°32' E 032°03'1110.1
2016-Jun-27 06:25N 46°36' E 031°47'9 9.8
2016-Jun-27 05:30N 46°35' E 031°34'8 9.1
2016-Jun-27 04:34N 46°35' E 031°21'1010.4
2016-Jun-27 03:33N 46°35' E 031°06'7 7.4
2016-Jun-27 02:33N 46°31' E 030°57'8 7.8
2016-Jun-27 01:33N 46°24' E 030°57'4 4.1
2016-Jun-27 00:32N 46°22' E 031°03'0 0.0
2016-Jun-26 23:32N 46°22' E 031°03'0 0.0
2016-Jun-26 22:32N 46°22' E 031°03'0 0.0
2016-Jun-26 21:32N 46°22' E 031°03'0 0.0
2016-Jun-26 20:32N 46°22' E 031°03'0 0.0
2016-Jun-26 19:32N 46°22' E 031°03'0 0.0
2016-Jun-26 18:32N 46°22' E 031°03'0 0.0
2016-Jun-26 17:32N 46°22' E 031°03'0 0.1
2016-Jun-26 16:32N 46°22' E 031°03'0 0.0
2016-Jun-26 15:32N 46°23' E 031°03'0 0.1
2016-Jun-26 14:32N 46°23' E 031°03'0 0.0
2016-Jun-26 13:32N 46°23' E 031°03'0 0.1
2016-Jun-26 12:32N 46°23' E 031°03'0 0.0
2016-Jun-26 11:32N 46°22' E 031°03'0 0.0
2016-Jun-26 10:32N 46°22' E 031°03'0 0.0
2016-Jun-26 09:32N 46°22' E 031°03'0 0.0
2016-Jun-26 08:32N 46°22' E 031°03'0 0.0
2016-Jun-26 07:32N 46°22' E 031°03'0 0.0
2016-Jun-26 06:32N 46°22' E 031°03'0 0.0
2016-Jun-26 05:32N 46°22' E 031°03'0 0.0
2016-Jun-26 04:32N 46°22' E 031°03'0 0.0
2016-Jun-26 03:32N 46°22' E 031°03'0 0.0
2016-Jun-26 02:32N 46°22' E 031°03'0 0.0
2016-Jun-26 01:32N 46°22' E 031°03'0 0.0
2016-Jun-26 00:32N 46°22' E 031°03'0 0.0
2016-Jun-25 23:23N 46°22' E 031°03'0 0.0
2016-Jun-25 22:29N 46°22' E 031°03'0 0.0
2016-Jun-25 21:32N 46°22' E 031°03'0 0.0
2016-Jun-25 20:32N 46°22' E 031°03'0 0.0
2016-Jun-25 19:32N 46°22' E 031°03'0 0.0
2016-Jun-25 18:32N 46°22' E 031°03'0 0.0
2016-Jun-25 15:32N 46°22' E 031°03'0 0.0
2016-Jun-25 14:32N 46°22' E 031°03'0 0.1
2016-Jun-25 13:08N 46°22' E 031°03'0 0.0
2016-Jun-25 12:29N 46°22' E 031°03'0 0.0
2016-Jun-25 11:29N 46°22' E 031°03'0 0.0
2016-Jun-24 23:05N 46°22' E 031°03'0 0.0
2016-Jun-24 22:20N 46°22' E 031°03'0 0.0
2016-Jun-24 21:32N 46°22' E 031°03'0 0.0
2016-Jun-24 17:08N 46°22' E 031°03'0 0.0
2016-Jun-24 16:33N 46°22' E 031°03'0 0.0
2016-Jun-24 15:32N 46°22' E 031°03'3 3.4
2016-Jun-24 14:33N 46°23' E 030°59'8 8.4
2016-Jun-24 13:33N 46°31' E 030°55'7 0.2
2016-Jun-22 21:23N 46°37' E 031°01'0 0.0
2016-Jun-22 20:29N 46°37' E 031°01'0 0.3
2016-Jun-22 19:32N 46°37' E 031°01'5 5.3
2016-Jun-22 18:33N 46°32' E 030°59'0 0.1
2016-Jun-22 17:32N 46°31' E 030°59'0 0.0
2016-Jun-22 16:32N 46°32' E 030°59'0 0.0
2016-Jun-22 15:32N 46°32' E 030°59'0 0.1
2016-Jun-22 14:32N 46°32' E 030°59'0 0.0
2016-Jun-22 13:32N 46°32' E 030°59'0 0.0
2016-Jun-22 12:32N 46°32' E 030°59'0 0.0
2016-Jun-22 11:32N 46°32' E 030°59'0 0.0
2016-Jun-22 10:32N 46°32' E 030°59'3 3.4
2016-Jun-22 09:33N 46°28' E 030°57'10 9.9
2016-Jun-22 08:33N 46°19' E 030°57'10 9.7
2016-Jun-22 07:33N 46°11' E 031°05'9 9.2
2016-Jun-22 06:33N 46°02' E 031°05'1110.0
2016-Jun-22 05:28N 45°51' E 031°01'9 9.9
2016-Jun-22 04:34N 45°42' E 030°57'1010.0
2016-Jun-22 03:34N 45°33' E 030°53'1010.1
2016-Jun-22 02:33N 45°23' E 030°48'13 9.9
2016-Jun-22 01:15N 45°11' E 030°44'  

Dump ship's entire track history